KBVSCYBL

Guest
Details From KBVS - SKAGIT RGNL
To CYBL - Campbell River
Flight Number -
Tags generated
Created
Modified
Stats Distance 143 nm / 265 km
Max Altitude 14,400 ft / 4,389 m
Waypoints 3
Social Downloads 0
Likes 0
Share VATSIM

Download

Looking for another format? Having issues loading an existing format? Contact us
Advertisement - Login to hide

Notes

Basic altitude profile: - Ascent Rate: 2000ft/min - Ascent Speed: 250kts - Cruise Altitude: 20000ft - Cruise Speed: 300kts - Descent Rate: 1500ft/min - Descent Speed: 250kts Options: - Use NATs: yes - Use PACOTS: yes - Use low airways: yes - Use high airways: yes

Route

KBVS ARMAC CYBL

ID Type Via Altitude Latitude Longitude Leg Dist Tot Dist Heading (true) Name
O KBVS APT - 0 ft / 0 m 48.46986˚ -122.42046˚ - 0 nm - SKAGIT RGNL
ARMAC FIX - 14,400 ft / 4,389 m 49.19431˚ -123.82650˚ 70 nm 70 nm 309° / 308° -
O CYBL APT - 0 ft / 0 m 49.95067˚ -125.27080˚ 72 nm 142 nm 309° / 308° Campbell River

Altitude Profile

Advertisement - Login to hide

KBVS

Details ICAO KBVS
Name SKAGIT RGNL
Region United States
Timezone America/Los_Angeles (UTC-7.0)
Stats Elevation 144 ft / 44 m (AMSL)
Location 48.469859° -122.420457°
Runways 2
Magnetic Variation 15.886° E

METAR

KBVS 241835Z AUTO VRB04KT 10SM BKN018 OVC023 15/12 A3007 RMK A01

Decode

TAF

Not found

Departure Runways

ID Width Length Bearing (true) Bearing (mag) Surface Threshold Offset Overrun Length
04 59 ft / 18 m 2,995 ft / 913 m 56.37° 40.48° Asphalt 0 ft / 0 m 39 ft / 12 m
10 98 ft / 30 m 5,468 ft / 1,667 m 126.51° 110.62° Asphalt 0 ft / 0 m 0 ft / 0 m
22 59 ft / 18 m 2,995 ft / 913 m 236.38° 220.49° Asphalt 0 ft / 0 m 39 ft / 12 m
28 98 ft / 30 m 5,468 ft / 1,667 m 306.53° 290.64° Asphalt 0 ft / 0 m 10 ft / 3 m

CYBL

Details ICAO CYBL (YBL)
Name Campbell River
Region Canada
Timezone America/Vancouver (UTC-7.0)
Stats Elevation 346 ft / 105 m (AMSL)
Location 49.950671° -125.270803°
Runways 1
Magnetic Variation 16.693° E

METAR

CYBL 241800Z VRB04KT 30SM SCT023 BKN045 16/10 A3003 RMK SC4CU2 SLP170 DENSITY ALT 500FT

Decode

TAF

TAF AMD TAF AMD CYBL 241640Z 2416/2503 27005KT P6SM BKN020 TEMPO 2416/2420 BKN025 BECMG 2417/2419 09005KT FM242000 09005KT P6SM BKN030 TEMPO 2420/2503 BKN025 RMK NXT FCST BY 241900Z

Decode

Destination Runways

ID Width Length Bearing (true) Bearing (mag) Surface Threshold Offset Overrun Length
11 151 ft / 46 m 5,023 ft / 1,531 m 135.20° 118.51° Asphalt 0 ft / 0 m 0 ft / 0 m
29 151 ft / 46 m 5,023 ft / 1,531 m 315.21° 298.52° Asphalt 0 ft / 0 m 0 ft / 0 m

Approach Navaids

Runway Type Ident Frequency Range Bearing (true) Bearing (mag) Slope Elevation
11 Localiser IBL 109.10 MHz 18 nm / 33 km 134.75° 118.06° - 309 ft / 94 m (AMSL)
11 Glidescope IBL 109.10 MHz 10 nm / 19 km 134.38° 117.69° 3.00° 344 ft / 105 m (AMSL)
29 Localiser IBL 109.10 MHz 18 nm / 33 km 134.38° 117.69° - 309 ft / 94 m (AMSL)
29 Glidescope IBL 109.10 MHz 10 nm / 19 km 315.21° 298.51° 3.00° 344 ft / 105 m (AMSL)